Main page
METAR-TAF:

METAR-TAF

Airports :

Castellón de la Plana, Spain

Castellón–Costa Azahar Airport

latitude: 40-12-35N, longitude: 0-04-11E, elevation: 360 m

Current weather observation

The report was made 10 minutes ago, at 02:00 UTC
Wind 2 kt from the North/Northeast
Temperature 16°C
Humidity 94%
Pressure 1017 hPa
Visibility: 3400 m
mist

METAR: LECH 290200Z AUTO 03002KT 3400 BR SCT001/// 16/15 Q1017

Time: 04:10 (02:10 UTC)


TAF: missing

Weather observations and forecasts of more than 4000 airports (METAR and TAF reports).

The available stations are represented by yellow and red dots on the map.

Hover mouse over dot to see the name of the station.

Then click to see weather observations and forecasts.

To change the map : click on the green buttons with a black cross to zoom in, on the green button with a dash to zoom out, or on the green arrows for adjacent maps.


METAR-TAF: